createdAt,value
2022-09-12T00:01:08.454Z,101446.91
2022-09-12T00:03:35.377Z,101441.75
2022-09-12T00:06:07.280Z,101449.56
2022-09-12T00:08:34.065Z,101448.19
2022-09-12T00:11:05.139Z,101444.09
2022-09-12T00:13:31.898Z,101441.69
2022-09-12T00:15:58.481Z,101441.34
2022-09-12T00:18:25.128Z,101443.69
2022-09-12T00:20:51.825Z,101439.59
2022-09-12T00:23:18.663Z,101445.38
2022-09-12T00:25:46.905Z,101439.41
2022-09-12T00:28:17.071Z,101433.44
2022-09-12T00:30:44.588Z,101439.13
2022-09-12T00:33:11.596Z,101448.66
2022-09-12T00:35:42.455Z,101440.81
2022-09-12T00:38:09.350Z,101443.16
2022-09-12T00:40:36.250Z,101444.50
2022-09-12T00:43:02.830Z,101440.38
2022-09-12T00:45:31.923Z,101438.00
2022-09-12T00:48:02.570Z,101436.63
2022-09-12T00:50:29.671Z,101442.34
2022-09-12T00:53:00.199Z,101443.69
2022-09-12T00:55:30.610Z,101436.84
2022-09-12T00:58:02.324Z,101442.78
2022-09-12T01:00:30.635Z,101438.53
2022-09-12T01:03:00.199Z,101446.16
2022-09-12T01:05:28.767Z,101445.59
2022-09-12T01:07:57.118Z,101447.78
2022-09-12T01:10:24.761Z,101441.66
2022-09-12T01:12:51.456Z,101437.56
2022-09-12T01:15:18.355Z,101430.69
2022-09-12T01:18:03.033Z,101435.59
2022-09-12T01:20:53.747Z,101433.19
2022-09-12T01:23:44.439Z,101434.38
2022-09-12T01:26:31.615Z,101429.41
2022-09-12T01:29:24.700Z,101437.84
2022-09-12T01:32:04.893Z,101439.19
2022-09-12T01:34:39.914Z,101434.06
2022-09-12T01:37:15.405Z,101431.69
2022-09-12T01:39:51.325Z,101428.38
2022-09-12T01:42:24.163Z,101436.00
2022-09-12T01:44:57.059Z,101432.75
2022-09-12T01:47:33.577Z,101431.22
2022-09-12T01:50:04.067Z,101429.63
2022-09-12T01:52:38.359Z,101428.09
2022-09-12T01:55:10.865Z,101429.41
2022-09-12T01:57:42.227Z,101431.41
2022-09-12T02:00:11.452Z,101428.16
2022-09-12T02:02:44.055Z,101432.03
2022-09-12T02:05:16.396Z,101432.31
2022-09-12T02:07:47.399Z,101434.34
2022-09-12T02:10:17.391Z,101426.66
2022-09-12T02:12:48.937Z,101437.84
2022-09-12T02:15:22.240Z,101430.81
2022-09-12T02:17:54.916Z,101434.72
2022-09-12T02:20:47.025Z,101430.44
2022-09-12T02:23:17.306Z,101428.16
2022-09-12T02:25:47.264Z,101437.47
2022-09-12T02:28:17.145Z,101435.09
2022-09-12T02:30:51.126Z,101433.69
2022-09-12T02:33:26.914Z,101441.09
2022-09-12T02:35:59.343Z,101431.56
2022-09-12T02:38:32.716Z,101428.28
2022-09-12T02:40:59.710Z,101431.16
2022-09-12T02:43:26.501Z,101433.19
2022-09-12T02:45:53.491Z,101425.19
2022-09-12T02:48:27.206Z,101431.75
2022-09-12T02:50:54.503Z,101426.63
2022-09-12T02:53:21.956Z,101435.75
2022-09-12T02:55:48.879Z,101429.66
2022-09-12T02:58:18.309Z,101425.34
2022-09-12T03:00:51.049Z,101427.53
2022-09-12T03:03:49.420Z,101428.69
2022-09-12T03:06:24.099Z,101431.53
2022-09-12T03:09:03.000Z,101427.13
2022-09-12T03:12:02.756Z,101424.72
2022-09-12T03:14:43.942Z,101429.44
2022-09-12T03:17:21.685Z,101423.31
2022-09-12T03:20:01.120Z,101425.31
2022-09-12T03:22:33.430Z,101427.31
2022-09-12T03:25:07.176Z,101430.16
2022-09-12T03:27:37.069Z,101425.03
2022-09-12T03:30:05.027Z,101417.03
2022-09-12T03:32:42.112Z,101419.06
2022-09-12T03:35:10.950Z,101430.22
2022-09-12T03:37:37.577Z,101430.38
2022-09-12T03:40:05.882Z,101427.78
2022-09-12T03:42:32.561Z,101430.81
2022-09-12T03:44:59.170Z,101432.78
2022-09-12T03:47:25.973Z,101442.09
2022-09-12T03:49:52.771Z,101440.56
2022-09-12T03:52:21.171Z,101438.84
2022-09-12T03:54:48.107Z,101434.69
2022-09-12T03:57:15.103Z,101443.84
2022-09-12T03:59:41.863Z,101433.44
2022-09-12T04:02:09.050Z,101436.28
2022-09-12T04:04:35.833Z,101439.16
2022-09-12T04:07:02.637Z,101434.84
2022-09-12T04:09:30.965Z,101438.59
2022-09-12T04:11:57.980Z,101442.31
2022-09-12T04:14:24.764Z,101442.44
2022-09-12T04:16:51.637Z,101440.88
2022-09-12T04:19:18.293Z,101446.56
2022-09-12T04:21:44.891Z,101441.44
2022-09-12T04:24:11.965Z,101438.03
2022-09-12T04:26:40.466Z,101441.75
2022-09-12T04:29:07.163Z,101443.69
2022-09-12T04:31:33.929Z,101434.03
2022-09-12T04:34:01.541Z,101439.56
2022-09-12T04:36:29.652Z,101435.31
2022-09-12T04:38:56.424Z,101430.03
2022-09-12T04:41:24.932Z,101437.47
2022-09-12T04:43:55.279Z,101429.47
2022-09-12T04:46:22.293Z,101445.00
2022-09-12T04:48:53.262Z,101443.16
2022-09-12T04:51:24.872Z,101452.28
2022-09-12T04:53:53.678Z,101454.97
2022-09-12T04:56:21.601Z,101441.44
2022-09-12T04:58:49.138Z,101437.91
2022-09-12T05:01:19.369Z,101442.28
2022-09-12T05:03:47.751Z,101448.72
2022-09-12T05:06:16.528Z,101446.84
2022-09-12T05:08:43.595Z,101444.88
2022-09-12T05:11:12.683Z,101442.88
2022-09-12T05:13:39.994Z,101450.00
2022-09-12T05:16:08.225Z,101448.00
2022-09-12T05:18:37.032Z,101440.88
2022-09-12T05:21:06.112Z,101450.72
2022-09-12T05:23:32.896Z,101447.88
2022-09-12T05:26:00.742Z,101454.00
2022-09-12T05:28:31.344Z,101439.44
2022-09-12T05:31:02.404Z,101447.41
2022-09-12T05:33:30.077Z,101443.59
2022-09-12T05:35:58.611Z,101443.31
2022-09-12T05:38:25.492Z,101447.44
2022-09-12T05:40:52.487Z,101451.72
2022-09-12T05:43:19.324Z,101462.28
2022-09-12T05:45:46.475Z,101464.69
2022-09-12T05:48:13.198Z,101455.25
2022-09-12T05:50:40.175Z,101462.94
2022-09-12T05:53:08.192Z,101463.25
2022-09-12T05:55:34.976Z,101460.94
2022-09-12T05:58:01.565Z,101463.91
2022-09-12T06:00:31.602Z,101469.63
2022-09-12T06:03:00.006Z,101471.59
2022-09-12T06:05:26.531Z,101467.25
2022-09-12T06:07:53.216Z,101471.81
2022-09-12T06:10:21.196Z,101479.91
2022-09-12T06:12:47.774Z,101483.47
2022-09-12T06:15:14.889Z,101490.69
2022-09-12T06:17:41.532Z,101495.06
2022-09-12T06:20:08.671Z,101493.28
2022-09-12T06:22:35.289Z,101483.25
2022-09-12T06:25:01.802Z,101493.91
2022-09-12T06:27:29.820Z,101497.56
2022-09-12T06:29:56.447Z,101501.22
2022-09-12T06:32:23.062Z,101486.03
2022-09-12T06:34:49.777Z,101487.66
2022-09-12T06:37:16.373Z,101490.16
2022-09-12T06:39:42.977Z,101487.31
2022-09-12T06:42:09.686Z,101483.53
2022-09-12T06:44:37.751Z,101486.31
2022-09-12T06:47:04.499Z,101487.94
2022-09-12T06:49:31.098Z,101484.94
2022-09-12T06:51:57.642Z,101491.16
2022-09-12T06:54:24.228Z,101486.28
2022-09-12T06:56:50.821Z,101477.03
2022-09-12T06:59:17.386Z,101480.47
2022-09-12T07:01:45.569Z,101478.47
2022-09-12T07:04:12.249Z,101476.50
2022-09-12T07:06:41.265Z,101476.53
2022-09-12T07:09:10.801Z,101481.16
2022-09-12T07:11:39.389Z,101473.50
2022-09-12T07:14:08.543Z,101468.78
2022-09-12T07:16:36.048Z,101474.94
2022-09-12T07:19:06.031Z,101468.50
2022-09-12T07:21:33.053Z,101470.91
2022-09-12T07:23:59.728Z,101478.09
2022-09-12T07:26:27.895Z,101472.66
2022-09-12T07:29:07.905Z,101476.06
2022-09-12T07:31:43.107Z,101469.59
2022-09-12T07:34:11.354Z,101473.00
2022-09-12T07:36:38.249Z,101476.75
2022-09-12T07:39:04.971Z,101464.31
2022-09-12T07:41:32.855Z,101469.75
2022-09-12T07:44:01.324Z,101472.63
2022-09-12T07:46:29.376Z,101474.69
2022-09-12T07:48:57.692Z,101475.03
2022-09-12T07:51:27.086Z,101471.78
2022-09-12T07:53:54.248Z,101478.38
2022-09-12T07:56:20.815Z,101482.16
2022-09-12T07:58:48.181Z,101490.31
2022-09-12T08:01:16.221Z,101483.34
2022-09-12T08:03:44.503Z,101478.19
2022-09-12T08:06:13.126Z,101475.59
2022-09-12T08:08:41.933Z,101481.41
2022-09-12T08:11:10.285Z,101479.16
2022-09-12T08:13:38.274Z,101479.28
2022-09-12T08:16:07.255Z,101482.19
2022-09-12T08:18:36.069Z,101490.22
2022-09-12T08:21:05.526Z,101482.50
2022-09-12T08:23:32.493Z,101490.16
2022-09-12T08:26:05.786Z,101483.31
2022-09-12T08:28:35.071Z,101490.13
2022-09-12T08:31:02.730Z,101476.78
2022-09-12T08:33:30.157Z,101485.25
2022-09-12T08:36:03.089Z,101477.59
2022-09-12T08:38:29.920Z,101487.97
2022-09-12T08:41:04.447Z,101481.78
2022-09-12T08:43:46.656Z,101486.72
2022-09-12T08:46:19.535Z,101484.44
2022-09-12T08:48:46.890Z,101484.44
2022-09-12T08:51:16.819Z,101481.91
2022-09-12T08:53:45.171Z,101481.91
2022-09-12T08:56:13.484Z,101474.38
2022-09-12T08:58:43.268Z,101465.81
2022-09-12T09:01:17.813Z,101472.41
2022-09-12T09:04:04.723Z,101472.72
2022-09-12T09:06:46.980Z,101470.34
2022-09-12T09:09:21.769Z,101477.84
2022-09-12T09:12:06.094Z,101466.50
2022-09-12T09:14:49.810Z,101465.75
2022-09-12T09:17:19.708Z,101465.41
2022-09-12T09:19:52.181Z,101464.66
2022-09-12T09:22:28.353Z,101465.81
2022-09-12T09:25:00.065Z,101466.13
2022-09-12T09:27:41.626Z,101470.00
2022-09-12T09:30:14.904Z,101456.63
2022-09-12T09:32:42.271Z,101462.56
2022-09-12T09:35:16.322Z,101458.22
2022-09-12T09:37:48.093Z,101460.22
2022-09-12T09:40:22.676Z,101460.34
2022-09-12T09:42:59.247Z,101456.66
2022-09-12T09:45:26.462Z,101446.78
2022-09-12T09:47:57.233Z,101448.97
2022-09-12T09:50:24.342Z,101443.78
2022-09-12T09:52:52.537Z,101443.06
2022-09-12T09:55:23.224Z,101438.53
2022-09-12T09:57:50.059Z,101432.47
2022-09-12T10:00:24.373Z,101439.56
2022-09-12T10:03:31.189Z,101428.28
2022-09-12T10:06:00.607Z,101429.66
2022-09-12T10:08:29.420Z,101425.59
2022-09-12T10:10:58.903Z,101431.63
2022-09-12T10:13:31.582Z,101434.25
2022-09-12T10:16:02.523Z,101437.25
2022-09-12T10:18:41.429Z,101437.53
2022-09-12T10:21:18.220Z,101431.72
2022-09-12T10:23:46.513Z,101435.78
2022-09-12T10:26:15.766Z,101433.13
2022-09-12T10:28:45.684Z,101437.44
2022-09-12T10:31:17.776Z,101430.75
2022-09-12T10:33:47.450Z,101439.03
2022-09-12T10:36:15.565Z,101421.09
2022-09-12T10:38:49.345Z,101430.72
2022-09-12T10:41:16.170Z,101428.22
2022-09-12T10:43:43.655Z,101425.25
2022-09-12T10:46:31.437Z,101427.81
2022-09-12T10:49:32.307Z,101425.72
2022-09-12T10:52:17.539Z,101423.22
2022-09-12T10:54:44.163Z,101424.13
2022-09-12T10:57:46.274Z,101425.28
2022-09-12T11:00:15.270Z,101414.81
2022-09-12T11:02:51.609Z,101412.13
2022-09-12T11:05:32.662Z,101406.69
2022-09-12T11:08:08.184Z,101410.06
2022-09-12T11:10:44.520Z,101410.91
2022-09-12T11:13:25.515Z,101407.13
2022-09-12T11:16:19.761Z,101401.69
2022-09-12T11:19:10.714Z,101410.59
2022-09-12T11:22:03.960Z,101400.41
2022-09-12T11:24:41.949Z,101403.56
2022-09-12T11:27:24.633Z,101404.19
2022-09-12T11:29:58.056Z,101404.66
2022-09-12T11:32:42.284Z,101401.31
2022-09-12T11:35:19.251Z,101398.44
2022-09-12T11:37:59.092Z,101390.38
2022-09-12T11:40:34.489Z,101390.41
2022-09-12T11:43:07.375Z,101386.41
2022-09-12T11:45:39.913Z,101386.84
2022-09-12T11:48:12.857Z,101380.69
2022-09-12T11:50:40.763Z,101379.00
2022-09-12T11:53:17.024Z,101383.28
2022-09-12T11:55:55.532Z,101376.25
2022-09-12T11:58:26.551Z,101367.13
2022-09-12T12:00:57.932Z,101373.06
2022-09-12T12:03:32.605Z,101370.50
2022-09-12T12:06:04.386Z,101366.44
2022-09-12T12:08:37.774Z,101367.47
2022-09-12T12:11:05.554Z,101369.78
2022-09-12T12:13:34.017Z,101376.50
2022-09-12T12:16:05.078Z,101365.44
2022-09-12T12:18:33.353Z,101357.09
2022-09-12T12:24:11.805Z,101353.69
2022-09-12T12:26:55.403Z,101350.94
2022-09-12T12:29:38.301Z,101341.81
2022-09-12T12:32:25.263Z,101343.03
2022-09-12T12:35:01.248Z,101338.59
2022-09-12T12:37:54.239Z,101345.19
2022-09-12T12:40:26.409Z,101346.66
2022-09-12T12:43:05.054Z,101350.72
2022-09-12T12:46:11.411Z,101346.72
2022-09-12T12:48:50.155Z,101348.94
2022-09-12T12:51:54.684Z,101350.91
2022-09-12T12:54:30.257Z,101341.78
2022-09-12T12:57:18.281Z,101343.69
2022-09-12T12:59:51.770Z,101339.22
2022-09-12T13:02:25.229Z,101342.63
2022-09-12T13:04:53.360Z,101334.75
2022-09-12T13:07:30.121Z,101334.47
2022-09-12T13:09:58.213Z,101333.22
2022-09-12T13:12:30.355Z,101333.22
2022-09-12T13:14:58.939Z,101328.75
2022-09-12T13:17:30.688Z,101320.84
2022-09-12T13:20:28.451Z,101327.63
2022-09-12T13:22:56.047Z,101312.81
2022-09-12T13:25:26.903Z,101309.03
2022-09-12T13:28:06.170Z,101312.25
2022-09-12T13:30:35.221Z,101311.59
2022-09-12T13:33:21.950Z,101307.78
2022-09-12T13:36:06.486Z,101305.63
2022-09-12T13:38:43.338Z,101307.72
2022-09-12T13:41:26.512Z,101300.44
2022-09-12T13:43:54.783Z,101293.31
2022-09-12T13:46:27.730Z,101291.97
2022-09-12T13:48:54.541Z,101294.28
2022-09-12T13:51:24.514Z,101293.13
2022-09-12T13:53:53.792Z,101288.84
2022-09-12T13:56:20.640Z,101292.25
2022-09-12T13:58:56.118Z,101290.53
2022-09-12T14:01:24.074Z,101296.06
2022-09-12T14:03:56.738Z,101287.78
2022-09-12T14:06:25.203Z,101282.03
2022-09-12T14:08:51.881Z,101282.03
2022-09-12T14:11:26.054Z,101280.09
2022-09-12T14:13:54.447Z,101286.06
2022-09-12T14:16:21.363Z,101283.53
2022-09-12T14:18:49.044Z,101278.06
2022-09-12T14:21:32.429Z,101277.69
2022-09-12T14:23:59.658Z,101273.00
2022-09-12T14:26:28.103Z,101274.69
2022-09-12T14:28:56.573Z,101276.38
2022-09-12T14:31:24.846Z,101275.53
2022-09-12T14:33:53.383Z,101262.41
2022-09-12T14:36:23.987Z,101261.97
2022-09-12T14:38:53.839Z,101263.72
2022-09-12T14:41:27.656Z,101268.84
2022-09-12T14:43:58.884Z,101263.56
2022-09-12T14:46:30.819Z,101268.47
2022-09-12T14:49:00.005Z,101257.88
2022-09-12T14:51:30.881Z,101258.34
2022-09-12T14:53:57.821Z,101251.53
2022-09-12T14:56:38.650Z,101252.84
2022-09-12T14:59:28.560Z,101245.25
2022-09-12T15:02:31.380Z,101249.31
2022-09-12T15:05:17.162Z,101250.81
2022-09-12T15:07:50.923Z,101238.75
2022-09-12T15:10:20.541Z,101247.50
2022-09-12T15:12:47.105Z,101243.25
2022-09-12T15:15:17.550Z,101250.50
2022-09-12T15:17:44.141Z,101238.22
2022-09-12T15:20:11.954Z,101242.50
2022-09-12T15:22:39.330Z,101242.94
2022-09-12T15:25:06.838Z,101245.06
2022-09-12T15:27:33.524Z,101237.25
2022-09-12T15:30:00.141Z,101233.88
2022-09-12T15:32:30.041Z,101231.50
2022-09-12T15:34:56.854Z,101232.81
2022-09-12T15:37:24.218Z,101232.41
2022-09-12T15:39:51.651Z,101227.31
2022-09-12T15:42:29.231Z,101222.25
2022-09-12T15:44:58.453Z,101227.38
2022-09-12T15:47:29.761Z,101221.47
2022-09-12T15:49:57.041Z,101225.72
2022-09-12T15:52:23.674Z,101227.25
2022-09-12T15:54:50.218Z,101226.81
2022-09-12T15:57:16.728Z,101223.03
2022-09-12T15:59:43.322Z,101219.03
2022-09-12T16:02:11.656Z,101214.38
2022-09-12T16:04:39.936Z,101226.28
2022-09-12T16:07:06.466Z,101222.25
2022-09-12T16:09:33.079Z,101216.56
2022-09-12T16:11:59.689Z,101216.38
2022-09-12T16:14:26.210Z,101209.81
2022-09-12T16:16:54.224Z,101214.25
2022-09-12T16:19:21.439Z,101208.53
2022-09-12T16:21:49.797Z,101207.28
2022-09-12T16:24:16.584Z,101210.69
2022-09-12T16:26:43.248Z,101209.44
2022-09-12T16:29:12.639Z,101203.53
2022-09-12T16:31:39.215Z,101204.38
2022-09-12T16:34:06.064Z,101202.50
2022-09-12T16:36:32.861Z,101196.97
2022-09-12T16:39:00.921Z,101194.25
2022-09-12T16:41:27.533Z,101192.16
2022-09-12T16:43:54.889Z,101196.59
2022-09-12T16:46:23.688Z,101191.97
2022-09-12T16:48:52.875Z,101188.16
2022-09-12T16:51:21.468Z,101184.34
2022-09-12T16:53:48.931Z,101187.06
2022-09-12T16:56:17.469Z,101178.81
2022-09-12T16:58:44.716Z,101179.88
2022-09-12T17:01:13.880Z,101181.56
2022-09-12T17:03:40.632Z,101181.56
2022-09-12T17:06:09.224Z,101180.72
2022-09-12T17:08:37.673Z,101180.72
2022-09-12T17:11:06.588Z,101176.03
2022-09-12T17:14:00.103Z,101169.69
2022-09-12T17:16:22.212Z,101168.00
2022-09-12T17:18:49.318Z,101168.81
2022-09-12T17:21:15.906Z,101167.13
2022-09-12T17:23:42.591Z,101160.72
2022-09-12T17:26:10.272Z,101163.66
2022-09-12T17:28:39.288Z,101167.25
2022-09-12T17:31:08.138Z,101169.13
2022-09-12T17:33:34.821Z,101162.75
2022-09-12T17:36:02.456Z,101161.91
2022-09-12T17:38:31.556Z,101170.28
2022-09-12T17:41:04.791Z,101173.88
2022-09-12T17:43:31.288Z,101174.06
2022-09-12T17:45:59.255Z,101170.41
2022-09-12T17:48:25.941Z,101176.06
2022-09-12T17:50:52.981Z,101168.00
2022-09-12T17:53:20.818Z,101167.72
2022-09-12T17:55:51.449Z,101169.59
2022-09-12T17:58:20.593Z,101172.28
2022-09-12T18:00:47.532Z,101173.28
2022-09-12T18:03:16.506Z,101170.69
2022-09-12T18:05:46.986Z,101171.50
2022-09-12T18:08:14.349Z,101175.22
2022-09-12T18:10:41.541Z,101179.84
2022-09-12T18:13:08.126Z,101178.91
2022-09-12T18:15:35.001Z,101180.75
2022-09-12T18:18:01.977Z,101177.13
2022-09-12T18:20:30.017Z,101170.72
2022-09-12T18:22:56.697Z,101168.09
2022-09-12T18:25:23.403Z,101163.75
2022-09-12T18:27:49.959Z,101169.56
2022-09-12T18:30:21.570Z,101172.44
2022-09-12T18:32:48.923Z,101168.78
2022-09-12T18:35:15.669Z,101170.78
2022-09-12T18:37:44.124Z,101168.81
2022-09-12T18:40:11.396Z,101159.88
2022-09-12T18:42:38.066Z,101165.06
2022-09-12T18:45:05.273Z,101162.06
2022-09-12T18:47:31.868Z,101168.31
2022-09-12T18:49:58.475Z,101162.56
2022-09-12T18:52:25.118Z,101161.44
2022-09-12T18:54:53.143Z,101151.25
2022-09-12T18:57:19.692Z,101152.19
2022-09-12T18:59:46.254Z,101149.16
2022-09-12T19:02:15.719Z,101149.91
2022-09-12T19:04:42.779Z,101144.16
2022-09-12T19:07:09.452Z,101149.34
2022-09-12T19:09:36.035Z,101146.53
2022-09-12T19:12:04.497Z,101139.91
2022-09-12T19:14:31.087Z,101141.50
2022-09-12T19:16:57.666Z,101144.81
2022-09-12T19:19:24.249Z,101143.69
2022-09-12T19:21:50.785Z,101135.38
2022-09-12T19:24:17.600Z,101135.06
2022-09-12T19:26:44.564Z,101132.91
2022-09-12T19:29:12.576Z,101129.91
2022-09-12T19:31:39.254Z,101126.88
2022-09-12T19:34:07.196Z,101128.47
2022-09-12T19:36:50.399Z,101130.91
2022-09-12T19:39:18.243Z,101134.19
2022-09-12T19:41:45.332Z,101135.78
2022-09-12T19:44:13.605Z,101132.72
2022-09-12T19:46:40.421Z,101128.66
2022-09-12T19:49:07.359Z,101127.34
2022-09-12T19:51:33.986Z,101125.16
2022-09-12T19:54:00.680Z,101118.34
2022-09-12T19:56:27.430Z,101121.63
2022-09-12T19:58:56.619Z,101123.00
2022-09-12T20:01:26.966Z,101117.06
2022-09-12T20:03:53.550Z,101124.13
2022-09-12T20:06:20.670Z,101112.69
2022-09-12T20:08:47.370Z,101114.94
2022-09-12T20:11:15.670Z,101117.38
2022-09-12T20:13:42.257Z,101107.84
2022-09-12T20:16:11.578Z,101118.28
2022-09-12T20:18:39.668Z,101115.06
2022-09-12T20:21:11.033Z,101111.00
2022-09-12T20:23:37.849Z,101104.22
2022-09-12T20:26:04.625Z,101112.72
2022-09-12T20:28:31.494Z,101101.34
2022-09-12T20:31:01.176Z,101100.84
2022-09-12T20:33:27.796Z,101100.38
2022-09-12T20:36:01.416Z,101099.88
2022-09-12T20:38:28.006Z,101101.28
2022-09-12T20:40:54.584Z,101104.34
2022-09-12T20:43:21.173Z,101103.84
2022-09-12T20:45:47.873Z,101103.38
2022-09-12T20:48:14.508Z,101099.13
2022-09-12T20:50:41.016Z,101098.59
2022-09-12T20:53:08.996Z,101085.47
2022-09-12T20:55:35.610Z,101093.38
2022-09-12T20:58:02.253Z,101094.75
2022-09-12T21:00:28.938Z,101096.31
2022-09-12T21:02:55.714Z,101093.09
2022-09-12T21:05:22.367Z,101098.00
2022-09-12T21:07:49.095Z,101088.50
2022-09-12T21:10:17.154Z,101095.31
2022-09-12T21:12:43.708Z,101099.25
2022-09-12T21:15:10.671Z,101096.91
2022-09-12T21:17:37.215Z,101096.38
2022-09-12T21:20:07.908Z,101089.56
2022-09-12T21:22:37.125Z,101082.78
2022-09-12T21:25:04.331Z,101076.84
2022-09-12T21:27:32.321Z,101080.78
2022-09-12T21:29:59.147Z,101076.50
2022-09-12T21:32:25.741Z,101075.00
2022-09-12T21:34:52.340Z,101079.75
2022-09-12T21:37:18.906Z,101076.38
2022-09-12T21:39:45.473Z,101077.53
2022-09-12T21:42:12.114Z,101071.59
2022-09-12T21:44:40.080Z,101069.88
2022-09-12T21:47:06.738Z,101062.06
2022-09-12T21:49:33.331Z,101061.41
2022-09-12T21:51:59.831Z,101059.03
2022-09-12T21:54:26.366Z,101052.91
2022-09-12T21:56:52.990Z,101051.38
2022-09-12T21:59:20.229Z,101048.84
2022-09-12T22:01:48.231Z,101049.84
2022-09-12T22:04:15.004Z,101039.31
2022-09-12T22:06:41.518Z,101038.63
2022-09-12T22:09:08.108Z,101039.84
2022-09-12T22:11:34.667Z,101035.56
2022-09-12T22:14:01.194Z,101032.19
2022-09-12T22:16:27.865Z,101033.38
2022-09-12T22:18:56.034Z,101030.84
2022-09-12T22:21:22.844Z,101033.03
2022-09-12T22:23:49.854Z,101029.44
2022-09-12T22:26:16.667Z,101017.91
2022-09-12T22:28:44.031Z,101022.66
2022-09-12T22:31:12.349Z,101010.94
2022-09-12T22:33:39.835Z,101011.25
2022-09-12T22:36:08.700Z,101010.56
2022-09-12T22:38:35.814Z,101004.44
2022-09-12T22:41:06.511Z,100998.50
2022-09-12T22:43:33.257Z,100990.69
2022-09-12T22:45:59.912Z,100987.28
2022-09-12T22:48:27.059Z,100986.59
2022-09-12T22:50:53.669Z,100991.34
2022-09-12T22:53:21.594Z,100980.81
2022-09-12T22:55:48.149Z,100974.69
2022-09-12T22:58:14.778Z,100971.31
2022-09-12T23:00:46.161Z,100969.59
2022-09-12T23:03:12.784Z,100966.19
2022-09-12T23:05:39.404Z,100966.53
2022-09-12T23:08:05.949Z,100963.16
2022-09-12T23:10:36.325Z,100966.91
2022-09-12T23:13:03.461Z,100967.06
2022-09-12T23:15:29.996Z,100973.50
2022-09-12T23:17:56.853Z,100965.53
2022-09-12T23:20:23.673Z,100964.69
2022-09-12T23:22:50.595Z,100965.88
2022-09-12T23:25:17.372Z,100962.47
2022-09-12T23:27:45.319Z,100958.75
2022-09-12T23:30:12.021Z,100953.63
2022-09-12T23:32:38.653Z,100952.78
2022-09-12T23:35:05.892Z,100952.97
2022-09-12T23:37:32.482Z,100949.41
2022-09-12T23:39:59.078Z,100940.38
2022-09-12T23:42:25.665Z,100939.53
2022-09-12T23:44:53.846Z,100947.69
2022-09-12T23:47:20.422Z,100939.72
2022-09-12T23:49:46.971Z,100942.44
2022-09-12T23:52:13.612Z,100933.44
2022-09-12T23:54:40.216Z,100942.59
2022-09-12T23:57:06.761Z,100940.03
2022-09-12T23:59:33.337Z,100931.88
